Main page
METAR-TAF:

METAR-TAF

Airports :

Niš Constantine the Great Airport

Niš, Serbia

latitude: 43-20N, longitude: 021-54E, elevation: 202 m

Current weather observation

The report was made 26 minutes ago, at 12:00 UTC
Wind 11 kt from the East, varying between Northeast and Southeast
Temperature 28°C
Humidity 28%
Pressure 1016 hPa
Visibility 10 km or more
Few clouds at a height of 3300 ft

METAR: LYNI 251200Z 09011KT 040V140 9999 FEW033 28/08 Q1016 NOSIG

Time: 14:26 (12:26 UTC)

Forecast

The report was made 1 hour and 26 minutes ago, at 11:00 UTC
Forecast valid from 25 at 12 UTC to 26 at 12 UTC
Wind 10 kt from the East
Visibility 10 km or more
Scattered clouds at a height of 3500 ft
Becoming
from 25 at 18 UTC to 25 at 20 UTC
Wind 5 kt from the Northeast
Becoming
from 26 at 08 UTC to 26 at 10 UTC
Wind 10 kt from the East

TAF: LYNI 251100Z 2512/2612 10010KT 9999 SCT035 TX27/2513Z TN14/2603Z BECMG 2518/2520 04005KT BECMG 2608/2610 10010KT

Weather observations and forecasts of more than 4000 airports (METAR and TAF reports).

The available stations are represented by yellow and red dots on the map.

Hover mouse over dot to see the name of the station.

Then click to see weather observations and forecasts.

To change the map : click on the green buttons with a black cross to zoom in, on the green button with a dash to zoom out, or on the green arrows for adjacent maps.


METAR-TAF: